createdAt,value
2017-07-19T00:02:10.104Z,27.10
2017-07-19T00:04:38.219Z,27.10
2017-07-19T00:07:06.320Z,27.10
2017-07-19T00:09:34.463Z,27.00
2017-07-19T00:12:02.571Z,27.00
2017-07-19T00:14:30.695Z,27.00
2017-07-19T00:16:58.792Z,27.00
2017-07-19T00:19:27.420Z,27.10
2017-07-19T00:21:55.521Z,27.00
2017-07-19T00:24:23.623Z,27.00
2017-07-19T00:26:51.726Z,27.00
2017-07-19T00:29:19.838Z,27.00
2017-07-19T00:31:47.960Z,27.00
2017-07-19T00:34:16.052Z,27.00
2017-07-19T00:36:44.156Z,27.00
2017-07-19T00:39:12.258Z,26.90
2017-07-19T00:41:40.359Z,27.00
2017-07-19T00:44:08.469Z,27.00
2017-07-19T00:46:36.559Z,27.00
2017-07-19T00:49:04.685Z,26.90
2017-07-19T00:51:32.825Z,26.90
2017-07-19T00:54:00.907Z,26.90
2017-07-19T00:56:29.023Z,26.90
2017-07-19T00:58:57.119Z,26.90
2017-07-19T01:01:25.240Z,26.90
2017-07-19T01:03:58.281Z,26.90
2017-07-19T01:06:26.656Z,26.90
2017-07-19T01:08:54.763Z,26.90
2017-07-19T01:11:22.863Z,26.90
2017-07-19T01:13:50.984Z,26.90
2017-07-19T01:16:19.100Z,26.90
2017-07-19T01:18:47.231Z,26.90
2017-07-19T01:21:15.332Z,26.90
2017-07-19T01:23:43.477Z,26.90
2017-07-19T01:26:11.595Z,26.80
2017-07-19T01:28:39.705Z,26.80
2017-07-19T01:31:07.896Z,26.80
2017-07-19T01:33:36.015Z,26.80
2017-07-19T01:36:04.127Z,26.80
2017-07-19T01:38:32.224Z,26.70
2017-07-19T01:41:00.471Z,26.70
2017-07-19T01:43:28.579Z,26.70
2017-07-19T01:45:56.707Z,26.70
2017-07-19T01:48:24.812Z,26.70
2017-07-19T01:50:52.921Z,26.70
2017-07-19T01:53:21.028Z,26.60
2017-07-19T01:55:49.132Z,26.60
2017-07-19T01:58:17.355Z,26.60
2017-07-19T02:00:45.447Z,26.60
2017-07-19T02:03:13.571Z,26.60
2017-07-19T02:05:41.669Z,26.60
2017-07-19T02:08:09.779Z,26.50
2017-07-19T02:10:37.968Z,26.50
2017-07-19T02:13:06.085Z,26.50
2017-07-19T02:15:34.186Z,26.50
2017-07-19T02:18:02.272Z,26.50
2017-07-19T02:20:30.370Z,26.60
2017-07-19T02:22:58.479Z,26.60
2017-07-19T02:25:26.604Z,26.50
2017-07-19T02:27:54.824Z,26.50
2017-07-19T02:30:22.976Z,26.50
2017-07-19T02:32:51.083Z,26.50
2017-07-19T02:35:19.173Z,26.50
2017-07-19T02:37:47.445Z,26.50
2017-07-19T02:40:15.549Z,26.50
2017-07-19T02:42:43.744Z,26.50
2017-07-19T02:45:11.846Z,26.50
2017-07-19T02:47:39.955Z,26.40
2017-07-19T02:50:08.079Z,26.40
2017-07-19T02:52:36.196Z,26.40
2017-07-19T02:55:05.050Z,26.40
2017-07-19T02:57:33.155Z,26.40
2017-07-19T03:00:01.256Z,26.40
2017-07-19T03:02:29.355Z,26.40
2017-07-19T03:04:57.508Z,26.40
2017-07-19T03:07:25.624Z,26.30
2017-07-19T03:09:53.720Z,26.30
2017-07-19T03:12:21.919Z,26.30
2017-07-19T03:14:50.062Z,26.30
2017-07-19T03:17:18.188Z,26.30
2017-07-19T03:19:46.293Z,26.30
2017-07-19T03:22:23.377Z,26.30
2017-07-19T03:24:51.821Z,26.30
2017-07-19T03:27:19.944Z,26.30
2017-07-19T03:29:48.075Z,26.20
2017-07-19T03:32:16.188Z,26.30
2017-07-19T03:34:44.358Z,26.20
2017-07-19T03:37:12.456Z,26.20
2017-07-19T03:39:40.683Z,26.20
2017-07-19T03:42:08.784Z,26.10
2017-07-19T03:44:37.564Z,26.10
2017-07-19T03:47:05.691Z,26.10
2017-07-19T03:49:33.835Z,26.10
2017-07-19T03:52:01.955Z,26.10
2017-07-19T03:54:30.059Z,26.10
2017-07-19T03:56:58.234Z,26.10
2017-07-19T03:59:26.312Z,26.10
2017-07-19T04:01:54.504Z,26.10
2017-07-19T04:06:59.995Z,26.10
2017-07-19T04:09:28.388Z,26.10
2017-07-19T04:11:56.500Z,26.00
2017-07-19T04:14:24.612Z,26.10
2017-07-19T04:16:53.579Z,26.10
2017-07-19T04:19:21.680Z,26.10
2017-07-19T04:21:49.809Z,26.10
2017-07-19T04:24:17.979Z,26.10
2017-07-19T04:26:46.163Z,26.10
2017-07-19T04:29:14.351Z,26.10
2017-07-19T04:31:42.552Z,26.10
2017-07-19T04:34:10.663Z,26.10
2017-07-19T04:36:38.779Z,26.10
2017-07-19T04:39:06.903Z,26.10
2017-07-19T04:41:35.019Z,26.10
2017-07-19T04:44:03.182Z,26.10
2017-07-19T04:46:31.368Z,26.10
2017-07-19T04:48:59.463Z,26.10
2017-07-19T04:51:27.558Z,26.10
2017-07-19T04:53:55.656Z,26.10
2017-07-19T04:56:24.488Z,26.10
2017-07-19T04:58:52.595Z,26.10
2017-07-19T05:01:20.698Z,26.10
2017-07-19T05:03:48.815Z,26.10
2017-07-19T05:06:16.980Z,26.10
2017-07-19T05:08:45.088Z,26.10
2017-07-19T05:11:13.196Z,26.10
2017-07-19T05:13:41.308Z,26.10
2017-07-19T05:16:09.440Z,26.20
2017-07-19T05:18:37.563Z,26.10
2017-07-19T05:21:05.664Z,26.10
2017-07-19T05:23:33.777Z,26.10
2017-07-19T05:26:01.875Z,26.10
2017-07-19T05:28:29.995Z,26.10
2017-07-19T05:30:58.096Z,26.10
2017-07-19T05:33:26.193Z,26.10
2017-07-19T05:35:54.276Z,26.10
2017-07-19T05:38:22.376Z,26.10
2017-07-19T05:40:50.556Z,26.10
2017-07-19T05:43:19.192Z,26.10
2017-07-19T05:47:11.811Z,26.10
2017-07-19T05:49:40.352Z,26.10
2017-07-19T05:52:08.512Z,26.00
2017-07-19T05:54:36.623Z,26.00
2017-07-19T05:57:04.711Z,26.00
2017-07-19T05:59:32.840Z,26.00
2017-07-19T06:02:00.956Z,26.00
2017-07-19T06:04:29.112Z,26.10
2017-07-19T06:06:57.211Z,26.10
2017-07-19T06:09:25.316Z,26.20
2017-07-19T06:11:53.464Z,26.20
2017-07-19T06:14:21.724Z,26.30
2017-07-19T06:16:49.805Z,26.40
2017-07-19T06:19:17.908Z,26.50
2017-07-19T06:21:46.023Z,26.50
2017-07-19T06:24:14.256Z,26.50
2017-07-19T06:26:42.355Z,26.60
2017-07-19T06:29:10.498Z,26.60
2017-07-19T06:31:38.625Z,26.60
2017-07-19T06:34:06.831Z,26.60
2017-07-19T06:36:35.075Z,26.70
2017-07-19T06:39:03.300Z,26.70
2017-07-19T06:41:31.395Z,26.70
2017-07-19T06:43:59.520Z,26.70
2017-07-19T06:46:27.620Z,26.80
2017-07-19T06:51:33.142Z,26.80
2017-07-19T06:54:01.629Z,26.80
2017-07-19T06:56:29.730Z,26.80
2017-07-19T06:58:57.976Z,26.90
2017-07-19T07:01:26.091Z,26.90
2017-07-19T07:03:54.200Z,26.90
2017-07-19T07:06:22.432Z,27.00
2017-07-19T07:08:50.552Z,27.00
2017-07-19T07:11:18.688Z,27.10
2017-07-19T07:13:46.804Z,27.20
2017-07-19T07:16:14.920Z,27.20
2017-07-19T07:18:43.014Z,27.30
2017-07-19T07:21:11.143Z,27.40
2017-07-19T07:23:39.232Z,27.40
2017-07-19T07:26:07.344Z,27.50
2017-07-19T07:28:35.460Z,27.60
2017-07-19T07:31:03.576Z,27.60
2017-07-19T07:33:31.776Z,27.70
2017-07-19T07:35:59.997Z,27.70
2017-07-19T07:38:28.113Z,27.70
2017-07-19T07:40:56.210Z,27.80
2017-07-19T07:43:24.319Z,27.80
2017-07-19T07:45:52.439Z,27.80
2017-07-19T07:48:20.556Z,27.90
2017-07-19T07:50:48.748Z,27.90
2017-07-19T07:53:16.847Z,28.00
2017-07-19T07:55:44.992Z,28.00
2017-07-19T07:58:13.087Z,28.00
2017-07-19T08:00:41.219Z,28.10
2017-07-19T08:03:09.340Z,28.10
2017-07-19T08:05:37.436Z,28.10
2017-07-19T08:08:05.524Z,28.10
2017-07-19T08:10:33.631Z,28.10
2017-07-19T08:13:01.756Z,28.10
2017-07-19T08:15:29.884Z,28.10
2017-07-19T08:17:57.978Z,28.10
2017-07-19T08:20:27.636Z,28.10
2017-07-19T08:22:55.891Z,28.10
2017-07-19T08:25:24.003Z,28.10
2017-07-19T08:27:52.148Z,28.10
2017-07-19T08:30:20.255Z,28.10
2017-07-19T08:32:48.492Z,28.10
2017-07-19T08:37:50.193Z,28.20
2017-07-19T08:40:18.312Z,28.20
2017-07-19T08:42:46.423Z,28.20
2017-07-19T08:45:14.545Z,28.20
2017-07-19T08:47:42.653Z,28.20
2017-07-19T08:50:10.751Z,28.20
2017-07-19T08:52:38.876Z,28.30
2017-07-19T08:55:06.999Z,28.30
2017-07-19T08:57:35.085Z,28.30
2017-07-19T09:00:03.208Z,28.40
2017-07-19T09:02:31.334Z,28.40
2017-07-19T09:04:59.441Z,28.50
2017-07-19T09:07:27.560Z,28.50
2017-07-19T09:09:55.705Z,28.60
2017-07-19T09:12:24.447Z,28.60
2017-07-19T09:14:52.577Z,28.60
2017-07-19T09:17:20.704Z,28.70
2017-07-19T09:19:48.811Z,28.70
2017-07-19T09:22:16.932Z,28.80
2017-07-19T09:24:45.065Z,28.90
2017-07-19T09:27:13.208Z,28.90
2017-07-19T09:29:41.395Z,29.00
2017-07-19T09:32:09.515Z,29.00
2017-07-19T09:34:37.700Z,29.10
2017-07-19T09:37:05.843Z,29.10
2017-07-19T09:39:33.963Z,29.20
2017-07-19T09:42:02.091Z,29.20
2017-07-19T09:44:30.236Z,29.30
2017-07-19T09:46:58.372Z,29.30
2017-07-19T09:49:26.478Z,29.40
2017-07-19T09:51:54.593Z,29.50
2017-07-19T09:54:22.725Z,29.50
2017-07-19T09:56:50.840Z,29.60
2017-07-19T09:59:18.989Z,29.70
2017-07-19T10:01:47.095Z,29.80
2017-07-19T10:04:15.224Z,29.80
2017-07-19T10:06:43.340Z,30.00
2017-07-19T10:09:11.483Z,30.10
2017-07-19T10:11:39.610Z,30.10
2017-07-19T10:14:07.784Z,30.20
2017-07-19T10:16:35.901Z,30.30
2017-07-19T10:19:04.020Z,30.30
2017-07-19T10:21:32.123Z,30.40
2017-07-19T10:24:00.235Z,30.40
2017-07-19T10:26:28.355Z,30.50
2017-07-19T10:28:56.473Z,30.60
2017-07-19T10:31:24.577Z,30.60
2017-07-19T10:33:52.799Z,30.60
2017-07-19T10:36:20.925Z,30.60
2017-07-19T10:38:49.032Z,30.60
2017-07-19T10:41:17.203Z,30.60
2017-07-19T10:43:45.332Z,30.60
2017-07-19T10:46:13.459Z,30.70
2017-07-19T10:48:41.566Z,30.70
2017-07-19T10:51:14.606Z,30.70
2017-07-19T10:53:42.787Z,30.80
2017-07-19T10:56:11.166Z,30.80
2017-07-19T10:58:39.260Z,30.90
2017-07-19T11:01:07.452Z,31.00
2017-07-19T11:03:35.644Z,31.10
2017-07-19T11:06:03.752Z,31.20
2017-07-19T11:08:31.884Z,31.30
2017-07-19T11:11:00.025Z,31.30
2017-07-19T11:13:28.147Z,31.40
2017-07-19T11:15:56.292Z,31.50
2017-07-19T11:18:24.429Z,31.50
2017-07-19T11:20:52.544Z,31.70
2017-07-19T11:23:21.369Z,31.80
2017-07-19T11:25:49.496Z,31.90
2017-07-19T11:28:17.600Z,32.10
2017-07-19T11:30:45.712Z,32.30
2017-07-19T11:33:13.819Z,32.40
2017-07-19T11:35:41.986Z,32.60
2017-07-19T11:38:10.089Z,32.80
2017-07-19T11:40:39.066Z,32.90
2017-07-19T11:43:07.192Z,33.10
2017-07-19T11:45:35.380Z,33.20
2017-07-19T11:48:03.844Z,33.30
2017-07-19T11:50:31.952Z,33.40
2017-07-19T11:53:00.092Z,33.60
2017-07-19T11:55:28.220Z,33.70
2017-07-19T11:57:56.396Z,33.80
2017-07-19T12:00:29.944Z,33.80
2017-07-19T12:02:58.088Z,33.80
2017-07-19T12:05:26.301Z,33.80
2017-07-19T12:07:54.414Z,33.80
2017-07-19T12:10:37.724Z,33.90
2017-07-19T12:13:06.193Z,33.90
2017-07-19T12:15:34.332Z,33.90
2017-07-19T12:18:02.445Z,33.90
2017-07-19T12:20:30.603Z,34.00
2017-07-19T12:22:58.808Z,34.00
2017-07-19T12:25:26.948Z,34.00
2017-07-19T12:27:55.150Z,34.00
2017-07-19T12:30:23.251Z,34.10
2017-07-19T12:32:51.378Z,34.10
2017-07-19T12:35:19.496Z,34.20
2017-07-19T12:37:47.632Z,34.20
2017-07-19T12:40:15.924Z,34.30
2017-07-19T12:42:44.039Z,34.30
2017-07-19T12:45:12.146Z,34.40
2017-07-19T12:47:40.289Z,34.50
2017-07-19T12:50:08.434Z,34.60
2017-07-19T12:52:36.568Z,34.60
2017-07-19T12:55:04.695Z,34.80
2017-07-19T12:57:32.838Z,34.80
2017-07-19T13:00:00.973Z,34.90
2017-07-19T13:02:29.132Z,35.00
2017-07-19T13:04:57.251Z,35.10
2017-07-19T13:07:25.392Z,35.10
2017-07-19T13:09:53.496Z,35.20
2017-07-19T13:12:22.430Z,35.30
2017-07-19T13:14:50.568Z,35.40
2017-07-19T13:17:18.681Z,35.40
2017-07-19T13:19:46.783Z,35.40
2017-07-19T13:22:15.000Z,35.50
2017-07-19T13:24:43.104Z,35.50
2017-07-19T13:27:11.776Z,35.50
2017-07-19T13:29:39.901Z,35.60
2017-07-19T13:32:08.031Z,35.60
2017-07-19T13:34:36.139Z,35.70
2017-07-19T13:37:04.266Z,35.80
2017-07-19T13:39:32.795Z,35.80
2017-07-19T13:42:00.891Z,35.80
2017-07-19T13:44:29.023Z,35.90
2017-07-19T13:46:57.132Z,36.00
2017-07-19T13:49:25.244Z,36.10
2017-07-19T13:51:53.401Z,36.00
2017-07-19T13:54:21.517Z,36.10
2017-07-19T13:56:49.651Z,36.10
2017-07-19T13:59:17.752Z,36.10
2017-07-19T14:01:51.052Z,36.10
2017-07-19T14:04:19.472Z,36.10
2017-07-19T14:06:47.568Z,36.00
2017-07-19T14:09:15.691Z,36.00
2017-07-19T14:11:43.804Z,36.00
2017-07-19T14:14:11.976Z,36.00
2017-07-19T14:16:40.099Z,36.00
2017-07-19T14:19:08.215Z,36.00
2017-07-19T14:21:36.328Z,36.10
2017-07-19T14:24:04.477Z,36.10
2017-07-19T14:26:33.240Z,36.20
2017-07-19T14:29:01.354Z,36.20
2017-07-19T14:31:29.456Z,36.10
2017-07-19T14:33:57.621Z,36.10
2017-07-19T14:36:25.727Z,36.10
2017-07-19T14:38:53.878Z,36.10
2017-07-19T14:41:22.063Z,36.10
2017-07-19T14:43:50.189Z,36.10
2017-07-19T14:46:18.296Z,36.10
2017-07-19T14:48:46.395Z,36.10
2017-07-19T14:51:14.576Z,36.10
2017-07-19T14:53:42.676Z,36.00
2017-07-19T14:56:10.832Z,36.00
2017-07-19T14:58:38.980Z,36.00
2017-07-19T15:01:07.073Z,36.00
2017-07-19T15:03:35.206Z,36.00
2017-07-19T15:06:03.313Z,36.00
2017-07-19T15:08:31.432Z,36.00
2017-07-19T15:10:59.546Z,35.90
2017-07-19T15:13:28.017Z,35.90
2017-07-19T15:15:56.166Z,36.00
2017-07-19T15:18:24.788Z,35.90
2017-07-19T15:20:52.899Z,35.90
2017-07-19T15:23:21.012Z,35.90
2017-07-19T15:25:49.095Z,35.90
2017-07-19T15:28:17.192Z,35.80
2017-07-19T15:30:45.287Z,35.80
2017-07-19T15:33:13.387Z,35.80
2017-07-19T15:35:41.540Z,35.80
2017-07-19T15:38:09.642Z,35.80
2017-07-19T15:40:37.780Z,35.80
2017-07-19T15:43:05.888Z,35.80
2017-07-19T15:45:35.028Z,35.80
2017-07-19T15:48:04.311Z,35.70
2017-07-19T15:50:32.436Z,35.70
2017-07-19T15:53:00.623Z,35.70
2017-07-19T15:55:33.584Z,35.60
2017-07-19T15:58:01.972Z,35.60
2017-07-19T16:00:30.158Z,35.50
2017-07-19T16:02:58.273Z,35.50
2017-07-19T16:05:26.707Z,35.50
2017-07-19T16:07:54.908Z,35.40
2017-07-19T16:10:23.008Z,35.40
2017-07-19T16:12:51.120Z,35.30
2017-07-19T16:15:19.226Z,35.30
2017-07-19T16:17:47.388Z,35.20
2017-07-19T16:20:15.504Z,35.20
2017-07-19T16:22:43.599Z,35.20
2017-07-19T16:25:11.739Z,35.10
2017-07-19T16:27:39.915Z,35.10
2017-07-19T16:30:08.023Z,35.00
2017-07-19T16:32:36.124Z,34.90
2017-07-19T16:35:04.255Z,34.90
2017-07-19T16:37:32.380Z,34.80
2017-07-19T16:40:00.496Z,34.80
2017-07-19T16:42:28.610Z,34.70
2017-07-19T16:44:56.711Z,34.70
2017-07-19T16:47:24.824Z,34.60
2017-07-19T16:49:52.927Z,34.60
2017-07-19T16:52:21.082Z,34.50
2017-07-19T16:54:49.181Z,34.50
2017-07-19T16:57:17.348Z,34.50
2017-07-19T16:59:46.353Z,34.40
2017-07-19T17:02:14.464Z,34.30
2017-07-19T17:04:42.551Z,34.30
2017-07-19T17:07:10.663Z,34.20
2017-07-19T17:09:38.778Z,34.10
2017-07-19T17:12:06.891Z,34.10
2017-07-19T17:14:35.000Z,34.00
2017-07-19T17:17:03.087Z,34.00
2017-07-19T17:19:31.188Z,33.90
2017-07-19T17:21:59.303Z,33.90
2017-07-19T17:24:27.420Z,33.80
2017-07-19T17:26:56.224Z,33.80
2017-07-19T17:29:24.340Z,33.70
2017-07-19T17:31:53.136Z,33.70
2017-07-19T17:34:21.236Z,33.70
2017-07-19T17:36:49.360Z,33.60
2017-07-19T17:39:17.484Z,33.60
2017-07-19T17:41:45.592Z,33.50
2017-07-19T17:44:13.697Z,33.50
2017-07-19T17:46:41.798Z,33.50
2017-07-19T17:49:09.904Z,33.40
2017-07-19T17:51:38.017Z,33.40
2017-07-19T17:54:06.179Z,33.30
2017-07-19T17:56:35.184Z,33.30
2017-07-19T17:59:03.279Z,33.30
2017-07-19T18:01:31.392Z,33.20
2017-07-19T18:03:59.995Z,33.20
2017-07-19T18:06:28.088Z,33.10
2017-07-19T18:08:56.191Z,33.10
2017-07-19T18:11:24.304Z,33.10
2017-07-19T18:13:52.419Z,33.00
2017-07-19T18:16:20.534Z,33.00
2017-07-19T18:18:48.657Z,32.90
2017-07-19T18:21:16.796Z,32.90
2017-07-19T18:23:44.896Z,32.80
2017-07-19T18:26:13.056Z,32.80
2017-07-19T18:28:41.183Z,32.70
2017-07-19T18:31:09.392Z,32.70
2017-07-19T18:33:37.484Z,32.60
2017-07-19T18:36:05.611Z,32.50
2017-07-19T18:38:33.716Z,32.30
2017-07-19T18:41:01.825Z,32.20
2017-07-19T18:43:29.923Z,32.00
2017-07-19T18:45:58.032Z,31.90
2017-07-19T18:48:26.163Z,31.80
2017-07-19T18:50:54.300Z,31.70
2017-07-19T18:53:22.395Z,31.50
2017-07-19T18:55:50.515Z,31.50
2017-07-19T18:58:18.616Z,31.40
2017-07-19T19:00:46.920Z,31.30
2017-07-19T19:03:15.034Z,31.20
2017-07-19T19:05:43.168Z,31.20
2017-07-19T19:08:11.304Z,31.10
2017-07-19T19:10:39.395Z,31.00
2017-07-19T19:13:07.508Z,30.90
2017-07-19T19:15:35.622Z,30.90
2017-07-19T19:18:03.744Z,30.80
2017-07-19T19:20:32.220Z,30.80
2017-07-19T19:23:00.371Z,30.70
2017-07-19T19:25:28.473Z,30.70
2017-07-19T19:27:56.588Z,30.70
2017-07-19T19:30:24.697Z,30.60
2017-07-19T19:32:52.808Z,30.50
2017-07-19T19:35:20.923Z,30.50
2017-07-19T19:37:49.081Z,30.50
2017-07-19T19:40:17.281Z,30.40
2017-07-19T19:42:45.384Z,30.40
2017-07-19T19:45:13.575Z,30.40
2017-07-19T19:47:41.679Z,30.30
2017-07-19T19:50:09.799Z,30.30
2017-07-19T19:52:37.926Z,30.30
2017-07-19T19:55:06.024Z,30.20
2017-07-19T19:57:34.153Z,30.20
2017-07-19T20:00:02.254Z,30.20
2017-07-19T20:02:30.356Z,30.20
2017-07-19T20:04:58.455Z,30.10
2017-07-19T20:07:26.552Z,30.10
2017-07-19T20:09:54.653Z,30.10
2017-07-19T20:12:22.760Z,30.10
2017-07-19T20:14:50.838Z,30.00
2017-07-19T20:17:18.937Z,30.00
2017-07-19T20:19:47.048Z,30.00
2017-07-19T20:22:15.135Z,29.90
2017-07-19T20:24:43.252Z,29.90
2017-07-19T20:27:11.363Z,29.80
2017-07-19T20:29:39.472Z,29.80
2017-07-19T20:32:07.568Z,29.70
2017-07-19T20:34:35.676Z,29.70
2017-07-19T20:37:03.802Z,29.70
2017-07-19T20:39:31.908Z,29.60
2017-07-19T20:42:00.028Z,29.60
2017-07-19T20:44:28.120Z,29.60
2017-07-19T20:46:56.236Z,29.60
2017-07-19T20:49:24.336Z,29.50
2017-07-19T20:51:52.459Z,29.60
2017-07-19T20:54:20.584Z,29.50
2017-07-19T20:56:48.712Z,29.50
2017-07-19T20:59:16.836Z,29.50
2017-07-19T21:01:44.948Z,29.40
2017-07-19T21:04:13.031Z,29.40
2017-07-19T21:06:41.140Z,29.40
2017-07-19T21:09:09.248Z,29.40
2017-07-19T21:11:37.350Z,29.40
2017-07-19T21:14:05.468Z,29.30
2017-07-19T21:16:33.567Z,29.30
2017-07-19T21:19:01.666Z,29.30
2017-07-19T21:21:29.767Z,29.30
2017-07-19T21:23:57.880Z,29.30
2017-07-19T21:26:25.980Z,29.20
2017-07-19T21:28:54.092Z,29.30
2017-07-19T21:31:22.200Z,29.20
2017-07-19T21:33:50.317Z,29.20
2017-07-19T21:36:18.418Z,29.20
2017-07-19T21:38:46.511Z,29.10
2017-07-19T21:41:14.643Z,29.20
2017-07-19T21:43:43.204Z,29.10
2017-07-19T21:46:11.315Z,29.10
2017-07-19T21:48:39.423Z,29.10
2017-07-19T21:51:07.528Z,29.10
2017-07-19T21:53:35.676Z,29.00
2017-07-19T21:56:03.784Z,29.10
2017-07-19T21:58:31.916Z,29.00
2017-07-19T22:01:00.008Z,29.00
2017-07-19T22:03:28.116Z,29.00
2017-07-19T22:05:56.216Z,28.90
2017-07-19T22:08:24.976Z,28.90
2017-07-19T22:10:53.088Z,28.90
2017-07-19T22:13:21.191Z,28.90
2017-07-19T22:15:49.375Z,28.90
2017-07-19T22:18:17.460Z,28.80
2017-07-19T22:20:45.571Z,28.80
2017-07-19T22:23:13.799Z,28.80
2017-07-19T22:25:41.936Z,28.70
2017-07-19T22:28:10.064Z,28.70
2017-07-19T22:30:38.179Z,28.60
2017-07-19T22:33:06.317Z,28.60
2017-07-19T22:35:34.409Z,28.60
2017-07-19T22:38:02.508Z,28.50
2017-07-19T22:40:30.623Z,28.50
2017-07-19T22:42:58.735Z,28.50
2017-07-19T22:45:26.851Z,28.40
2017-07-19T22:47:54.972Z,28.30
2017-07-19T22:50:23.092Z,28.40
2017-07-19T22:52:51.178Z,28.30
2017-07-19T22:55:19.284Z,28.30
2017-07-19T22:57:47.400Z,28.30
2017-07-19T23:00:15.508Z,28.30
2017-07-19T23:02:43.619Z,28.20
2017-07-19T23:05:11.738Z,28.20
2017-07-19T23:07:39.863Z,28.20
2017-07-19T23:10:07.971Z,28.20
2017-07-19T23:12:36.075Z,28.20
2017-07-19T23:15:04.192Z,28.20
2017-07-19T23:17:32.303Z,28.20
2017-07-19T23:20:00.430Z,28.20
2017-07-19T23:22:28.568Z,28.10
2017-07-19T23:24:56.676Z,28.10
2017-07-19T23:27:24.768Z,28.10
2017-07-19T23:29:52.907Z,28.10
2017-07-19T23:32:21.020Z,28.10
2017-07-19T23:34:49.120Z,28.10
2017-07-19T23:37:17.238Z,28.10
2017-07-19T23:39:45.327Z,28.10
2017-07-19T23:42:13.552Z,28.10
2017-07-19T23:44:41.663Z,28.10
2017-07-19T23:47:09.789Z,28.00
2017-07-19T23:49:37.887Z,28.00
2017-07-19T23:52:06.845Z,28.00
2017-07-19T23:54:34.958Z,28.00
2017-07-19T23:57:03.075Z,28.00
2017-07-19T23:59:31.900Z,28.00
